Terminal Aerodrome Forecast
Issued by NWS Grand Rapids, MI

Home | Current Version | Previous Version | Text Only | Print | Product List | Glossary On
Versions: 1 2 3 4 5 6 7 8 9 10 11 12 13 14 15 16 17 18 19 20 21 22 23 24 25
000
FTUS43 KGRR 210500
TAFGRR
TAF
KGRR 210540Z 2106/2206 VRB04KT 5SM -SN BR OVC015
     FM210800 20003KT 4SM BR OVC009
     FM211500 17008KT 4SM BR OVC015
     FM212100 16008KT P6SM OVC050=

USA.gov is the U.S. government's official web portal to all federal, state and local government web resources and services.